Skip Navigation Links
NOAA logo - Click to go to the NOAA homepage
NOAA's National Weather Service
Alaska Aviation Weather Unit
  NWS logo - Click to go to the NWS homepage
Left Navbar Graphic     01 AKDT = 09 GMT

   
NOAA is celebrating 200 years of science, service, and stewardship. Visit the NOAA 200th celebration Web site to learn more.
USA.gov is the U.S. Government's official Web portal to all Federal, state and local government Web resources and services.
Facebook
NWS on Facebook

Important Change Regarding the AAWU Web Presence

 

Over the last several months, the AAWU has been working to navigate its webpages to a nationally supported server. Security, as well as other needs, have necessitated the change.  We have been given an extension for the site changeover while we diligently work at addressing feedback received. As of July 14, 2017, aawu.arh.noaa.gov will be discontinued. The new AAWU web address is weather.gov/aawu. It is now live and will run in-parallel with the old site until it is discontinued on July 14, 2017. Please continue to send any feedback or questions regarding the new webpages to nws.ar.aawu.webauthors@noaa.gov.  Thank you for your patience during this time of transition.
AAWU Home :: Display TAF Add Bookmark
PANT 190310Z AUTO VRB04KT 10SM SCT005 BKN011 OVC060 13/11 A3008=

PANT 190325Z AUTO 15005KT 10SM SCT009 BKN033 OVC060 13/11 A3008=

PANT 190338Z AUTO 15004KT 10SM FEW005 BKN011 OVC047 13/11 A3008=

METAR PANT 190353Z AUTO 14005KT 10SM BKN007 BKN011 OVC034 13/11 A3008
     RMK AO2 CIG 004V008 SLP188 T01330111 TSNO=

PANT 190407Z AUTO 13005KT 10SM SCT007 OVC060 13/11 A3009=

PANT 190418Z AUTO 12004KT 10SM BKN007 OVC060 13/11 A3009=

METAR PANT 190453Z AUTO 13004KT 10SM OVC005 13/11 A3009 RMK AO2 SLP190
     T01280106 TSNO=

SPECI PANT 190541Z AUTO VRB03KT 10SM SCT005 BKN075 13/11 A3010 RMK AO2
     T01280106 TSNO=

METAR PANT 190553Z AUTO 12004KT 10SM SCT075 12/11 A3010 RMK AO2
 SLP194 T01220106 10161 20122 53007 TSNO=

METAR PANT 190653Z AUTO 12003KT 10SM CLR 12/10 A3011 RMK AO2 SLP197
     T01170100 TSNO=

METAR PANT 190753Z AUTO 13003KT 10SM BKN070 12/10 A3012 RMK AO2 SLP201
     T01170100 TSNO=

METAR PANT 190853Z AUTO 13003KT 9SM FEW001 SCT035 BKN070 12/10 A3013 RMK
     AO2 SLP203 T01170100 401670111 51009 TSNO=


NOAA's National Weather Service
Alaska Aviation Weather Unit
6930 Sand Lake Road
Anchorage, AK 99502-1845
Disclaimer
Credits
Glossary
Privacy Policy
About Us
Career Opportunities
Contact AAWU Internet Services Site last modified: April, 17th 2012